sensor_id;sensor_type;location;lat;lon;timestamp;temperature;humidity
53073;DHT22;38955;48.916;2.336;2023-04-25T00:01:29;11.90;99.90
53073;DHT22;38955;48.916;2.336;2023-04-25T00:03:31;11.80;99.90
53073;DHT22;38955;48.916;2.336;2023-04-25T00:05:34;11.90;99.90
53073;DHT22;38955;48.916;2.336;2023-04-25T00:07:38;11.90;99.90
53073;DHT22;38955;48.916;2.336;2023-04-25T00:09:41;11.80;99.90
53073;DHT22;38955;48.916;2.336;2023-04-25T00:11:43;11.80;99.90
53073;DHT22;38955;48.916;2.336;2023-04-25T00:13:45;11.70;99.90
53073;DHT22;38955;48.916;2.336;2023-04-25T00:15:48;11.70;99.90
53073;DHT22;38955;48.916;2.336;2023-04-25T00:17:52;11.60;99.90
53073;DHT22;38955;48.916;2.336;2023-04-25T00:19:54;11.60;99.90
53073;DHT22;38955;48.916;2.336;2023-04-25T00:21:57;11.60;99.90
53073;DHT22;38955;48.916;2.336;2023-04-25T00:24:01;11.70;99.90
53073;DHT22;38955;48.916;2.336;2023-04-25T00:26:04;11.60;99.90
53073;DHT22;38955;48.916;2.336;2023-04-25T00:28:06;11.60;99.90
53073;DHT22;38955;48.916;2.336;2023-04-25T00:30:09;11.50;99.90
53073;DHT22;38955;48.916;2.336;2023-04-25T00:32:11;11.50;99.90
53073;DHT22;38955;48.916;2.336;2023-04-25T00:34:13;11.40;99.90
53073;DHT22;38955;48.916;2.336;2023-04-25T00:36:19;11.40;99.90
53073;DHT22;38955;48.916;2.336;2023-04-25T00:38:21;11.50;99.90
53073;DHT22;38955;48.916;2.336;2023-04-25T00:40:25;11.40;99.90
53073;DHT22;38955;48.916;2.336;2023-04-25T00:42:28;11.40;99.90
53073;DHT22;38955;48.916;2.336;2023-04-25T00:44:31;11.40;99.90
53073;DHT22;38955;48.916;2.336;2023-04-25T00:46:34;11.40;99.90
53073;DHT22;38955;48.916;2.336;2023-04-25T00:48:37;11.40;99.90
53073;DHT22;38955;48.916;2.336;2023-04-25T00:50:39;11.40;99.90
53073;DHT22;38955;48.916;2.336;2023-04-25T00:52:44;11.30;99.90
53073;DHT22;38955;48.916;2.336;2023-04-25T00:54:46;11.30;99.90
53073;DHT22;38955;48.916;2.336;2023-04-25T00:56:50;11.30;99.90
53073;DHT22;38955;48.916;2.336;2023-04-25T00:58:53;11.40;99.90
53073;DHT22;38955;48.916;2.336;2023-04-25T01:01:01;11.30;99.90
53073;DHT22;38955;48.916;2.336;2023-04-25T01:03:03;11.30;99.90
53073;DHT22;38955;48.916;2.336;2023-04-25T01:05:06;11.30;99.90
53073;DHT22;38955;48.916;2.336;2023-04-25T01:07:08;11.30;99.90
53073;DHT22;38955;48.916;2.336;2023-04-25T01:09:12;11.30;99.90
53073;DHT22;38955;48.916;2.336;2023-04-25T01:11:15;11.30;99.90
53073;DHT22;38955;48.916;2.336;2023-04-25T01:13:18;11.30;99.90
53073;DHT22;38955;48.916;2.336;2023-04-25T01:15:20;11.30;99.90
53073;DHT22;38955;48.916;2.336;2023-04-25T01:17:22;11.20;99.90
53073;DHT22;38955;48.916;2.336;2023-04-25T01:19:25;11.20;99.90
53073;DHT22;38955;48.916;2.336;2023-04-25T01:21:29;11.10;99.90
53073;DHT22;38955;48.916;2.336;2023-04-25T01:23:32;11.10;99.90
53073;DHT22;38955;48.916;2.336;2023-04-25T01:25:35;11.00;99.90
53073;DHT22;38955;48.916;2.336;2023-04-25T01:27:37;11.00;99.90
53073;DHT22;38955;48.916;2.336;2023-04-25T01:29:39;11.00;99.90
53073;DHT22;38955;48.916;2.336;2023-04-25T01:31:43;11.00;99.90
53073;DHT22;38955;48.916;2.336;2023-04-25T01:33:48;11.00;99.90
53073;DHT22;38955;48.916;2.336;2023-04-25T01:35:51;11.10;99.90
53073;DHT22;38955;48.916;2.336;2023-04-25T01:37:55;11.00;99.90
53073;DHT22;38955;48.916;2.336;2023-04-25T01:39:57;10.90;99.90
53073;DHT22;38955;48.916;2.336;2023-04-25T01:41:59;11.00;99.90
53073;DHT22;38955;48.916;2.336;2023-04-25T01:44:02;10.90;99.90
53073;DHT22;38955;48.916;2.336;2023-04-25T01:46:04;10.90;99.90
53073;DHT22;38955;48.916;2.336;2023-04-25T01:48:07;11.00;99.90
53073;DHT22;38955;48.916;2.336;2023-04-25T01:50:10;11.00;99.90
53073;DHT22;38955;48.916;2.336;2023-04-25T01:52:13;11.00;99.90
53073;DHT22;38955;48.916;2.336;2023-04-25T01:54:17;11.10;99.90
53073;DHT22;38955;48.916;2.336;2023-04-25T01:56:20;10.90;99.90
53073;DHT22;38955;48.916;2.336;2023-04-25T01:58:22;10.80;99.90
53073;DHT22;38955;48.916;2.336;2023-04-25T02:00:24;10.80;99.90
53073;DHT22;38955;48.916;2.336;2023-04-25T02:02:26;10.80;99.90
53073;DHT22;38955;48.916;2.336;2023-04-25T02:04:28;10.80;99.90
53073;DHT22;38955;48.916;2.336;2023-04-25T02:06:31;10.80;99.90
53073;DHT22;38955;48.916;2.336;2023-04-25T02:08:33;10.90;99.90
53073;DHT22;38955;48.916;2.336;2023-04-25T02:10:36;10.90;99.90
53073;DHT22;38955;48.916;2.336;2023-04-25T02:12:38;10.90;99.90
53073;DHT22;38955;48.916;2.336;2023-04-25T02:14:41;10.90;99.90
53073;DHT22;38955;48.916;2.336;2023-04-25T02:16:43;11.00;99.90
53073;DHT22;38955;48.916;2.336;2023-04-25T02:18:46;10.90;99.90
53073;DHT22;38955;48.916;2.336;2023-04-25T02:20:48;10.80;99.90
53073;DHT22;38955;48.916;2.336;2023-04-25T02:22:51;10.80;99.90
53073;DHT22;38955;48.916;2.336;2023-04-25T02:24:53;10.90;99.90
53073;DHT22;38955;48.916;2.336;2023-04-25T02:26:57;11.00;99.90
53073;DHT22;38955;48.916;2.336;2023-04-25T02:28:59;11.10;99.90
53073;DHT22;38955;48.916;2.336;2023-04-25T02:31:01;11.10;99.90
53073;DHT22;38955;48.916;2.336;2023-04-25T02:33:03;11.10;99.90
53073;DHT22;38955;48.916;2.336;2023-04-25T02:35:06;11.00;99.90
53073;DHT22;38955;48.916;2.336;2023-04-25T02:37:08;10.90;99.90
53073;DHT22;38955;48.916;2.336;2023-04-25T02:39:10;11.00;99.90
53073;DHT22;38955;48.916;2.336;2023-04-25T02:41:13;11.10;99.90
53073;DHT22;38955;48.916;2.336;2023-04-25T02:43:17;11.00;99.90
53073;DHT22;38955;48.916;2.336;2023-04-25T02:45:19;11.00;99.90
53073;DHT22;38955;48.916;2.336;2023-04-25T02:47:21;11.00;99.90
53073;DHT22;38955;48.916;2.336;2023-04-25T02:49:23;10.90;99.90
53073;DHT22;38955;48.916;2.336;2023-04-25T02:51:25;10.90;99.90
53073;DHT22;38955;48.916;2.336;2023-04-25T02:53:28;10.90;99.90
53073;DHT22;38955;48.916;2.336;2023-04-25T02:55:30;10.90;99.90
53073;DHT22;38955;48.916;2.336;2023-04-25T02:57:34;10.90;99.90
53073;DHT22;38955;48.916;2.336;2023-04-25T02:59:38;11.00;99.90
53073;DHT22;38955;48.916;2.336;2023-04-25T03:01:40;11.00;99.90
53073;DHT22;38955;48.916;2.336;2023-04-25T03:03:42;10.90;99.90
53073;DHT22;38955;48.916;2.336;2023-04-25T03:05:45;10.90;99.90
53073;DHT22;38955;48.916;2.336;2023-04-25T03:07:48;10.80;99.90
53073;DHT22;38955;48.916;2.336;2023-04-25T03:09:50;10.80;99.90
53073;DHT22;38955;48.916;2.336;2023-04-25T03:11:52;10.80;99.90
53073;DHT22;38955;48.916;2.336;2023-04-25T03:13:55;10.90;99.90
53073;DHT22;38955;48.916;2.336;2023-04-25T03:15:58;10.70;99.90
53073;DHT22;38955;48.916;2.336;2023-04-25T03:18:00;10.70;99.90
53073;DHT22;38955;48.916;2.336;2023-04-25T03:20:03;10.80;99.90
53073;DHT22;38955;48.916;2.336;2023-04-25T03:22:05;10.80;99.90
53073;DHT22;38955;48.916;2.336;2023-04-25T03:26:31;10.80;99.90
53073;DHT22;38955;48.916;2.336;2023-04-25T03:28:33;10.70;99.90
53073;DHT22;38955;48.916;2.336;2023-04-25T03:30:35;10.70;99.90
53073;DHT22;38955;48.916;2.336;2023-04-25T03:32:39;10.80;99.90
53073;DHT22;38955;48.916;2.336;2023-04-25T03:34:41;10.80;99.90
53073;DHT22;38955;48.916;2.336;2023-04-25T03:36:43;10.80;99.90
53073;DHT22;38955;48.916;2.336;2023-04-25T03:38:45;10.70;99.90
53073;DHT22;38955;48.916;2.336;2023-04-25T03:40:47;10.80;99.90
53073;DHT22;38955;48.916;2.336;2023-04-25T03:42:49;10.80;99.90
53073;DHT22;38955;48.916;2.336;2023-04-25T03:44:51;10.80;99.90
53073;DHT22;38955;48.916;2.336;2023-04-25T03:46:54;10.70;99.90
53073;DHT22;38955;48.916;2.336;2023-04-25T03:48:57;10.70;99.90
53073;DHT22;38955;48.916;2.336;2023-04-25T03:51:01;10.80;99.90
53073;DHT22;38955;48.916;2.336;2023-04-25T03:53:03;10.60;99.90
53073;DHT22;38955;48.916;2.336;2023-04-25T03:55:05;10.70;99.90
53073;DHT22;38955;48.916;2.336;2023-04-25T03:57:08;10.70;99.90
53073;DHT22;38955;48.916;2.336;2023-04-25T03:59:10;10.70;99.90
53073;DHT22;38955;48.916;2.336;2023-04-25T04:01:12;10.70;99.90
53073;DHT22;38955;48.916;2.336;2023-04-25T04:03:14;10.70;99.90
53073;DHT22;38955;48.916;2.336;2023-04-25T04:05:18;10.70;99.90
53073;DHT22;38955;48.916;2.336;2023-04-25T04:07:20;10.70;99.90
53073;DHT22;38955;48.916;2.336;2023-04-25T04:09:23;10.60;99.90
53073;DHT22;38955;48.916;2.336;2023-04-25T04:11:25;10.60;99.90
53073;DHT22;38955;48.916;2.336;2023-04-25T04:13:28;10.60;99.90
53073;DHT22;38955;48.916;2.336;2023-04-25T04:15:30;10.70;99.90
53073;DHT22;38955;48.916;2.336;2023-04-25T04:17:34;10.70;99.90
53073;DHT22;38955;48.916;2.336;2023-04-25T04:19:36;10.90;99.90
53073;DHT22;38955;48.916;2.336;2023-04-25T04:21:40;10.80;99.90
53073;DHT22;38955;48.916;2.336;2023-04-25T04:23:42;10.80;99.90
53073;DHT22;38955;48.916;2.336;2023-04-25T04:25:44;10.80;99.90
53073;DHT22;38955;48.916;2.336;2023-04-25T04:27:46;10.80;99.90
53073;DHT22;38955;48.916;2.336;2023-04-25T04:29:49;10.80;99.90
53073;DHT22;38955;48.916;2.336;2023-04-25T04:31:52;10.80;99.90
53073;DHT22;38955;48.916;2.336;2023-04-25T04:33:55;10.80;99.90
53073;DHT22;38955;48.916;2.336;2023-04-25T04:35:57;10.90;99.90
53073;DHT22;38955;48.916;2.336;2023-04-25T04:38:00;10.90;99.90
53073;DHT22;38955;48.916;2.336;2023-04-25T04:40:03;10.90;99.90
53073;DHT22;38955;48.916;2.336;2023-04-25T04:42:07;10.90;99.90
53073;DHT22;38955;48.916;2.336;2023-04-25T04:44:10;10.90;99.90
53073;DHT22;38955;48.916;2.336;2023-04-25T04:46:12;10.90;99.90
53073;DHT22;38955;48.916;2.336;2023-04-25T04:48:14;10.80;99.90
53073;DHT22;38955;48.916;2.336;2023-04-25T04:50:16;10.90;99.90
53073;DHT22;38955;48.916;2.336;2023-04-25T04:52:18;10.90;99.90
53073;DHT22;38955;48.916;2.336;2023-04-25T04:54:22;10.80;99.90
53073;DHT22;38955;48.916;2.336;2023-04-25T04:56:24;10.80;99.90
53073;DHT22;38955;48.916;2.336;2023-04-25T04:58:27;10.90;99.90
53073;DHT22;38955;48.916;2.336;2023-04-25T05:00:31;11.00;99.90
53073;DHT22;38955;48.916;2.336;2023-04-25T05:02:33;10.90;99.90
53073;DHT22;38955;48.916;2.336;2023-04-25T05:04:36;11.00;99.90
53073;DHT22;38955;48.916;2.336;2023-04-25T05:06:38;10.90;99.90
53073;DHT22;38955;48.916;2.336;2023-04-25T05:08:40;10.90;99.90
53073;DHT22;38955;48.916;2.336;2023-04-25T05:10:43;10.80;99.90
53073;DHT22;38955;48.916;2.336;2023-04-25T05:12:46;10.90;99.90
53073;DHT22;38955;48.916;2.336;2023-04-25T05:14:48;10.90;99.90
53073;DHT22;38955;48.916;2.336;2023-04-25T05:16:50;10.90;99.90
53073;DHT22;38955;48.916;2.336;2023-04-25T05:18:52;10.90;99.90
53073;DHT22;38955;48.916;2.336;2023-04-25T05:20:54;11.00;99.90
53073;DHT22;38955;48.916;2.336;2023-04-25T05:22:56;11.00;99.90
53073;DHT22;38955;48.916;2.336;2023-04-25T05:24:58;11.00;99.90
53073;DHT22;38955;48.916;2.336;2023-04-25T05:27:02;11.00;99.90
53073;DHT22;38955;48.916;2.336;2023-04-25T05:29:06;11.00;99.90
53073;DHT22;38955;48.916;2.336;2023-04-25T05:31:09;10.90;99.90
53073;DHT22;38955;48.916;2.336;2023-04-25T05:33:11;11.00;99.90
53073;DHT22;38955;48.916;2.336;2023-04-25T05:35:13;11.00;99.90
53073;DHT22;38955;48.916;2.336;2023-04-25T05:37:16;11.10;99.90
53073;DHT22;38955;48.916;2.336;2023-04-25T05:39:18;11.10;99.90
53073;DHT22;38955;48.916;2.336;2023-04-25T05:41:20;11.10;99.90
53073;DHT22;38955;48.916;2.336;2023-04-25T05:43:24;11.10;99.90
53073;DHT22;38955;48.916;2.336;2023-04-25T05:45:26;11.20;99.90
53073;DHT22;38955;48.916;2.336;2023-04-25T05:47:28;11.10;99.90
53073;DHT22;38955;48.916;2.336;2023-04-25T05:49:30;11.00;99.90
53073;DHT22;38955;48.916;2.336;2023-04-25T05:51:32;10.90;99.90
53073;DHT22;38955;48.916;2.336;2023-04-25T05:53:34;11.10;99.90
53073;DHT22;38955;48.916;2.336;2023-04-25T05:55:40;11.00;99.90
53073;DHT22;38955;48.916;2.336;2023-04-25T05:57:45;11.00;99.90
53073;DHT22;38955;48.916;2.336;2023-04-25T05:59:48;11.00;99.90
53073;DHT22;38955;48.916;2.336;2023-04-25T06:01:50;10.90;99.90
53073;DHT22;38955;48.916;2.336;2023-04-25T06:03:53;11.10;99.90
53073;DHT22;38955;48.916;2.336;2023-04-25T06:05:59;11.10;99.90
53073;DHT22;38955;48.916;2.336;2023-04-25T06:08:01;11.00;99.90
53073;DHT22;38955;48.916;2.336;2023-04-25T06:10:08;11.10;99.90
53073;DHT22;38955;48.916;2.336;2023-04-25T06:12:14;11.00;99.90
53073;DHT22;38955;48.916;2.336;2023-04-25T06:14:16;10.90;99.90
53073;DHT22;38955;48.916;2.336;2023-04-25T06:16:22;11.00;99.90
53073;DHT22;38955;48.916;2.336;2023-04-25T06:18:24;11.10;99.90
53073;DHT22;38955;48.916;2.336;2023-04-25T06:20:28;11.10;99.90
53073;DHT22;38955;48.916;2.336;2023-04-25T06:22:30;11.10;99.90
53073;DHT22;38955;48.916;2.336;2023-04-25T06:24:32;11.10;99.90
53073;DHT22;38955;48.916;2.336;2023-04-25T06:26:34;11.10;99.90
53073;DHT22;38955;48.916;2.336;2023-04-25T06:28:38;11.10;99.90
53073;DHT22;38955;48.916;2.336;2023-04-25T06:30:40;11.10;99.90
53073;DHT22;38955;48.916;2.336;2023-04-25T06:32:44;11.10;99.90
53073;DHT22;38955;48.916;2.336;2023-04-25T06:34:46;11.20;99.90
53073;DHT22;38955;48.916;2.336;2023-04-25T06:36:48;11.10;99.90
53073;DHT22;38955;48.916;2.336;2023-04-25T06:38:50;11.10;99.90
53073;DHT22;38955;48.916;2.336;2023-04-25T06:40:52;11.10;99.90
53073;DHT22;38955;48.916;2.336;2023-04-25T06:42:54;11.20;99.90
53073;DHT22;38955;48.916;2.336;2023-04-25T06:44:56;11.20;99.90
53073;DHT22;38955;48.916;2.336;2023-04-25T06:46:58;11.10;99.90
53073;DHT22;38955;48.916;2.336;2023-04-25T06:49:02;11.10;99.90
53073;DHT22;38955;48.916;2.336;2023-04-25T06:51:05;11.20;99.90
53073;DHT22;38955;48.916;2.336;2023-04-25T06:53:07;11.30;99.90
53073;DHT22;38955;48.916;2.336;2023-04-25T06:55:10;11.20;99.90
53073;DHT22;38955;48.916;2.336;2023-04-25T06:57:15;11.20;99.90
53073;DHT22;38955;48.916;2.336;2023-04-25T06:59:17;11.20;99.90
53073;DHT22;38955;48.916;2.336;2023-04-25T07:01:19;11.20;99.90
53073;DHT22;38955;48.916;2.336;2023-04-25T07:03:21;11.10;99.90
53073;DHT22;38955;48.916;2.336;2023-04-25T07:05:25;11.10;99.90
53073;DHT22;38955;48.916;2.336;2023-04-25T07:07:27;11.10;99.90
53073;DHT22;38955;48.916;2.336;2023-04-25T07:09:29;11.00;99.90
53073;DHT22;38955;48.916;2.336;2023-04-25T07:11:32;10.90;99.90
53073;DHT22;38955;48.916;2.336;2023-04-25T07:13:34;10.90;99.90
53073;DHT22;38955;48.916;2.336;2023-04-25T07:15:36;10.80;99.90
53073;DHT22;38955;48.916;2.336;2023-04-25T07:17:38;10.70;99.90
53073;DHT22;38955;48.916;2.336;2023-04-25T07:19:43;10.60;99.90
53073;DHT22;38955;48.916;2.336;2023-04-25T07:21:47;10.60;99.90
53073;DHT22;38955;48.916;2.336;2023-04-25T07:23:49;10.50;99.90
53073;DHT22;38955;48.916;2.336;2023-04-25T07:25:51;10.40;99.90
53073;DHT22;38955;48.916;2.336;2023-04-25T07:27:53;10.20;99.90
53073;DHT22;38955;48.916;2.336;2023-04-25T07:29:55;10.20;99.90
53073;DHT22;38955;48.916;2.336;2023-04-25T07:31:57;10.10;99.90
53073;DHT22;38955;48.916;2.336;2023-04-25T07:33:59;10.20;99.90
53073;DHT22;38955;48.916;2.336;2023-04-25T07:36:03;10.20;99.90
53073;DHT22;38955;48.916;2.336;2023-04-25T07:38:07;10.30;99.90
53073;DHT22;38955;48.916;2.336;2023-04-25T07:40:10;10.20;99.90
53073;DHT22;38955;48.916;2.336;2023-04-25T07:42:12;10.20;99.90
53073;DHT22;38955;48.916;2.336;2023-04-25T07:44:18;10.20;99.90
53073;DHT22;38955;48.916;2.336;2023-04-25T07:46:20;10.30;99.90
53073;DHT22;38955;48.916;2.336;2023-04-25T07:48:22;10.40;99.90
53073;DHT22;38955;48.916;2.336;2023-04-25T07:50:24;10.40;99.90
53073;DHT22;38955;48.916;2.336;2023-04-25T07:52:26;10.40;99.90
53073;DHT22;38955;48.916;2.336;2023-04-25T07:54:30;10.70;99.90
53073;DHT22;38955;48.916;2.336;2023-04-25T07:56:32;10.80;99.70
53073;DHT22;38955;48.916;2.336;2023-04-25T07:58:53;10.70;99.90
53073;DHT22;38955;48.916;2.336;2023-04-25T08:00:55;10.90;99.90
53073;DHT22;38955;48.916;2.336;2023-04-25T08:02:57;11.00;99.90
53073;DHT22;38955;48.916;2.336;2023-04-25T08:05:00;11.00;99.90
53073;DHT22;38955;48.916;2.336;2023-04-25T08:07:03;10.90;99.70
53073;DHT22;38955;48.916;2.336;2023-04-25T08:09:05;11.00;99.60
53073;DHT22;38955;48.916;2.336;2023-04-25T08:11:08;11.10;99.50
53073;DHT22;38955;48.916;2.336;2023-04-25T08:13:10;11.30;99.60
53073;DHT22;38955;48.916;2.336;2023-04-25T08:15:12;11.40;99.10
53073;DHT22;38955;48.916;2.336;2023-04-25T08:17:15;11.20;99.10
53073;DHT22;38955;48.916;2.336;2023-04-25T08:19:17;11.10;99.30
53073;DHT22;38955;48.916;2.336;2023-04-25T08:21:20;11.20;99.50
53073;DHT22;38955;48.916;2.336;2023-04-25T08:23:22;11.20;99.70
53073;DHT22;38955;48.916;2.336;2023-04-25T08:25:24;11.20;99.50
53073;DHT22;38955;48.916;2.336;2023-04-25T08:27:27;11.10;99.80
53073;DHT22;38955;48.916;2.336;2023-04-25T08:29:29;11.00;99.90
53073;DHT22;38955;48.916;2.336;2023-04-25T08:31:31;11.00;99.90
53073;DHT22;38955;48.916;2.336;2023-04-25T08:33:34;11.00;99.90
53073;DHT22;38955;48.916;2.336;2023-04-25T08:35:36;11.00;99.80
53073;DHT22;38955;48.916;2.336;2023-04-25T08:37:38;10.90;99.30
53073;DHT22;38955;48.916;2.336;2023-04-25T08:39:40;10.90;99.70
53073;DHT22;38955;48.916;2.336;2023-04-25T08:41:43;10.90;99.30
53073;DHT22;38955;48.916;2.336;2023-04-25T08:43:48;10.80;99.30
53073;DHT22;38955;48.916;2.336;2023-04-25T08:45:53;10.80;99.40
53073;DHT22;38955;48.916;2.336;2023-04-25T08:47:58;10.80;99.20
53073;DHT22;38955;48.916;2.336;2023-04-25T08:50:03;11.10;99.00
53073;DHT22;38955;48.916;2.336;2023-04-25T08:52:07;11.20;98.20
53073;DHT22;38955;48.916;2.336;2023-04-25T08:54:13;11.40;98.10
53073;DHT22;38955;48.916;2.336;2023-04-25T08:56:18;11.50;98.20
53073;DHT22;38955;48.916;2.336;2023-04-25T08:58:24;11.70;97.80
53073;DHT22;38955;48.916;2.336;2023-04-25T09:00:28;11.70;97.60
53073;DHT22;38955;48.916;2.336;2023-04-25T09:02:30;11.60;97.80
53073;DHT22;38955;48.916;2.336;2023-04-25T09:04:32;11.40;98.10
53073;DHT22;38955;48.916;2.336;2023-04-25T09:06:35;11.20;97.70
53073;DHT22;38955;48.916;2.336;2023-04-25T09:08:37;11.20;98.10
53073;DHT22;38955;48.916;2.336;2023-04-25T09:10:41;11.20;97.30
53073;DHT22;38955;48.916;2.336;2023-04-25T09:13:02;11.20;97.20
53073;DHT22;38955;48.916;2.336;2023-04-25T09:15:06;11.40;97.60
53073;DHT22;38955;48.916;2.336;2023-04-25T09:17:10;11.70;97.30
53073;DHT22;38955;48.916;2.336;2023-04-25T09:19:21;12.00;97.00
53073;DHT22;38955;48.916;2.336;2023-04-25T09:21:39;12.00;96.40
53073;DHT22;38955;48.916;2.336;2023-04-25T09:23:43;11.90;96.40
53073;DHT22;38955;48.916;2.336;2023-04-25T09:25:47;11.90;96.70
53073;DHT22;38955;48.916;2.336;2023-04-25T09:27:50;11.90;96.70
53073;DHT22;38955;48.916;2.336;2023-04-25T09:29:57;11.60;96.90
53073;DHT22;38955;48.916;2.336;2023-04-25T09:32:26;11.50;97.10
53073;DHT22;38955;48.916;2.336;2023-04-25T09:34:39;11.60;96.70
53073;DHT22;38955;48.916;2.336;2023-04-25T09:36:42;11.40;96.60
53073;DHT22;38955;48.916;2.336;2023-04-25T09:38:45;11.30;96.70
53073;DHT22;38955;48.916;2.336;2023-04-25T09:40:48;11.50;96.90
53073;DHT22;38955;48.916;2.336;2023-04-25T09:42:51;11.50;95.90
53073;DHT22;38955;48.916;2.336;2023-04-25T09:44:55;11.60;96.10
53073;DHT22;38955;48.916;2.336;2023-04-25T09:46:57;11.80;95.60
53073;DHT22;38955;48.916;2.336;2023-04-25T09:49:06;11.80;95.50
53073;DHT22;38955;48.916;2.336;2023-04-25T09:51:10;12.00;95.60
53073;DHT22;38955;48.916;2.336;2023-04-25T09:53:16;12.20;94.80
53073;DHT22;38955;48.916;2.336;2023-04-25T09:55:18;12.40;94.70
53073;DHT22;38955;48.916;2.336;2023-04-25T09:57:22;12.40;94.70
53073;DHT22;38955;48.916;2.336;2023-04-25T09:59:24;12.60;95.10
53073;DHT22;38955;48.916;2.336;2023-04-25T10:01:27;12.60;94.60
53073;DHT22;38955;48.916;2.336;2023-04-25T10:03:31;12.60;94.50
53073;DHT22;38955;48.916;2.336;2023-04-25T10:05:35;12.90;94.90
53073;DHT22;38955;48.916;2.336;2023-04-25T10:07:40;13.00;94.50
53073;DHT22;38955;48.916;2.336;2023-04-25T10:09:45;12.80;94.10
53073;DHT22;38955;48.916;2.336;2023-04-25T10:11:49;12.90;94.70
53073;DHT22;38955;48.916;2.336;2023-04-25T10:13:52;13.00;94.90
53073;DHT22;38955;48.916;2.336;2023-04-25T10:15:56;13.20;94.10
53073;DHT22;38955;48.916;2.336;2023-04-25T10:17:59;13.30;94.70
53073;DHT22;38955;48.916;2.336;2023-04-25T10:20:03;13.30;93.70
53073;DHT22;38955;48.916;2.336;2023-04-25T10:22:15;13.30;93.90
53073;DHT22;38955;48.916;2.336;2023-04-25T10:24:19;13.30;93.60
53073;DHT22;38955;48.916;2.336;2023-04-25T10:26:27;13.30;94.10
53073;DHT22;38955;48.916;2.336;2023-04-25T10:28:55;13.30;93.20
53073;DHT22;38955;48.916;2.336;2023-04-25T10:30:58;13.30;93.00
53073;DHT22;38955;48.916;2.336;2023-04-25T10:33:00;13.30;92.70
53073;DHT22;38955;48.916;2.336;2023-04-25T10:35:13;13.10;92.90
53073;DHT22;38955;48.916;2.336;2023-04-25T10:37:19;13.10;93.00
53073;DHT22;38955;48.916;2.336;2023-04-25T10:39:26;13.10;93.20
53073;DHT22;38955;48.916;2.336;2023-04-25T10:41:28;13.00;94.00
53073;DHT22;38955;48.916;2.336;2023-04-25T10:43:34;13.20;93.50
53073;DHT22;38955;48.916;2.336;2023-04-25T10:45:51;13.40;93.50
53073;DHT22;38955;48.916;2.336;2023-04-25T10:47:54;13.60;93.20
53073;DHT22;38955;48.916;2.336;2023-04-25T10:50:05;13.50;93.00
53073;DHT22;38955;48.916;2.336;2023-04-25T10:52:19;13.30;92.20
53073;DHT22;38955;48.916;2.336;2023-04-25T10:54:27;13.40;93.70
53073;DHT22;38955;48.916;2.336;2023-04-25T10:56:30;13.50;92.20
53073;DHT22;38955;48.916;2.336;2023-04-25T10:58:32;13.70;92.10
53073;DHT22;38955;48.916;2.336;2023-04-25T11:00:35;13.90;92.70
53073;DHT22;38955;48.916;2.336;2023-04-25T11:02:59;14.00;91.20
53073;DHT22;38955;48.916;2.336;2023-04-25T11:05:02;14.00;91.30
53073;DHT22;38955;48.916;2.336;2023-04-25T11:07:10;14.00;90.90
53073;DHT22;38955;48.916;2.336;2023-04-25T11:09:15;13.80;90.20
53073;DHT22;38955;48.916;2.336;2023-04-25T11:11:18;13.60;90.60
53073;DHT22;38955;48.916;2.336;2023-04-25T11:13:20;13.60;91.00
53073;DHT22;38955;48.916;2.336;2023-04-25T11:15:24;13.70;90.60
53073;DHT22;38955;48.916;2.336;2023-04-25T11:17:26;13.90;91.10
53073;DHT22;38955;48.916;2.336;2023-04-25T11:19:29;14.10;90.80
53073;DHT22;38955;48.916;2.336;2023-04-25T11:21:32;13.90;90.70
53073;DHT22;38955;48.916;2.336;2023-04-25T11:23:34;13.90;91.00
53073;DHT22;38955;48.916;2.336;2023-04-25T11:25:38;14.10;91.60
53073;DHT22;38955;48.916;2.336;2023-04-25T11:27:50;14.20;91.40
53073;DHT22;38955;48.916;2.336;2023-04-25T11:29:53;14.30;90.50
53073;DHT22;38955;48.916;2.336;2023-04-25T11:31:55;14.40;90.60
53073;DHT22;38955;48.916;2.336;2023-04-25T11:34:00;14.40;90.30
53073;DHT22;38955;48.916;2.336;2023-04-25T11:36:02;14.50;89.50
53073;DHT22;38955;48.916;2.336;2023-04-25T11:38:05;14.40;89.50
53073;DHT22;38955;48.916;2.336;2023-04-25T11:40:08;14.30;89.90
53073;DHT22;38955;48.916;2.336;2023-04-25T11:42:15;14.40;89.00
53073;DHT22;38955;48.916;2.336;2023-04-25T11:44:18;14.20;90.00
53073;DHT22;38955;48.916;2.336;2023-04-25T11:46:22;14.20;89.80
53073;DHT22;38955;48.916;2.336;2023-04-25T11:48:24;13.90;90.30
53073;DHT22;38955;48.916;2.336;2023-04-25T11:50:28;13.70;90.60
53073;DHT22;38955;48.916;2.336;2023-04-25T11:52:37;13.60;90.80
53073;DHT22;38955;48.916;2.336;2023-04-25T11:54:40;13.60;90.70
53073;DHT22;38955;48.916;2.336;2023-04-25T11:56:43;13.60;91.10
53073;DHT22;38955;48.916;2.336;2023-04-25T11:58:57;13.50;91.30
53073;DHT22;38955;48.916;2.336;2023-04-25T12:00:59;13.50;90.90
53073;DHT22;38955;48.916;2.336;2023-04-25T12:03:01;13.40;91.10
53073;DHT22;38955;48.916;2.336;2023-04-25T12:05:07;13.30;91.10
53073;DHT22;38955;48.916;2.336;2023-04-25T12:07:30;13.30;91.20
53073;DHT22;38955;48.916;2.336;2023-04-25T12:09:33;13.50;91.70
53073;DHT22;38955;48.916;2.336;2023-04-25T12:11:41;13.70;90.80
53073;DHT22;38955;48.916;2.336;2023-04-25T12:13:44;13.90;91.10
53073;DHT22;38955;48.916;2.336;2023-04-25T12:15:48;14.00;90.60
53073;DHT22;38955;48.916;2.336;2023-04-25T12:17:52;14.10;90.40
53073;DHT22;38955;48.916;2.336;2023-04-25T12:19:54;14.30;90.10
53073;DHT22;38955;48.916;2.336;2023-04-25T12:21:56;14.40;90.00
53073;DHT22;38955;48.916;2.336;2023-04-25T12:24:09;14.50;90.00
53073;DHT22;38955;48.916;2.336;2023-04-25T12:26:11;14.40;88.00
53073;DHT22;38955;48.916;2.336;2023-04-25T12:28:15;14.20;88.20
53073;DHT22;38955;48.916;2.336;2023-04-25T12:30:18;14.30;88.10
53073;DHT22;38955;48.916;2.336;2023-04-25T12:32:21;14.30;88.30
53073;DHT22;38955;48.916;2.336;2023-04-25T12:34:24;14.40;89.30
53073;DHT22;38955;48.916;2.336;2023-04-25T12:36:26;14.50;88.60
53073;DHT22;38955;48.916;2.336;2023-04-25T12:38:30;14.60;88.30
53073;DHT22;38955;48.916;2.336;2023-04-25T12:40:33;14.70;88.40
53073;DHT22;38955;48.916;2.336;2023-04-25T12:42:35;14.80;88.00
53073;DHT22;38955;48.916;2.336;2023-04-25T12:44:37;14.80;88.30
53073;DHT22;38955;48.916;2.336;2023-04-25T12:46:40;15.00;87.50
53073;DHT22;38955;48.916;2.336;2023-04-25T12:48:44;15.00;86.60
53073;DHT22;38955;48.916;2.336;2023-04-25T12:50:46;15.10;86.90
53073;DHT22;38955;48.916;2.336;2023-04-25T12:52:52;15.30;86.70
53073;DHT22;38955;48.916;2.336;2023-04-25T12:54:54;15.50;87.10
53073;DHT22;38955;48.916;2.336;2023-04-25T12:56:56;15.60;85.70
53073;DHT22;38955;48.916;2.336;2023-04-25T12:58:59;15.40;85.40
53073;DHT22;38955;48.916;2.336;2023-04-25T13:01:01;14.90;85.20
53073;DHT22;38955;48.916;2.336;2023-04-25T13:03:03;14.70;86.40